Time;durP1;ratioP1;P1;durP2;ratioP2;P2;SDS_P1;SDS_P2;PMS_P1;PMS_P2;Temp;Humidity;BMP_temperature;BMP_pressure;BME280_temperature;BME280_humidity;BME280_pressure;Samples;Min_cycle;Max_cycle;Signal;HPM_P1;HPM_P2
2021/09/20 00:01:31;;;;;;;5.87;1.00;;;;;;;;;;5120212;27;20201;-63
2021/09/20 00:04:00;;;;;;;0.87;0.70;;;;;;;;;;5118653;28;20642;-63
2021/09/20 00:06:29;;;;;;;1.03;1.00;;;;;;;;;;5119778;28;20289;-60
2021/09/20 00:08:57;;;;;;;1.27;0.60;;;;;;;;;;5119915;28;20291;-60
2021/09/20 00:11:25;;;;;;;1.13;0.70;;;;;;;;;;5120098;28;20268;-61
2021/09/20 00:13:53;;;;;;;0.70;0.70;;;;;;;;;;5119458;28;20308;-61
2021/09/20 00:16:21;;;;;;;0.57;0.57;;;;;;;;;;5119689;28;20205;-60
2021/09/20 00:18:49;;;;;;;0.80;0.53;;;;;;;;;;5119137;28;20205;-61
2021/09/20 00:21:17;;;;;;;0.53;0.50;;;;;;;;;;5120048;28;20268;-60
2021/09/20 00:23:47;;;;;;;0.77;0.73;;;;;;;;;;5119315;28;20247;-60
2021/09/20 00:26:15;;;;;;;0.70;0.70;;;;;;;;;;5119667;28;20325;-60
2021/09/20 00:28:42;;;;;;;0.60;0.60;;;;;;;;;;5119794;28;20204;-61
2021/09/20 00:31:10;;;;;;;1.47;1.00;;;;;;;;;;5119337;28;20227;-60
2021/09/20 00:33:38;;;;;;;1.10;1.00;;;;;;;;;;5119258;27;20648;-60
2021/09/20 00:36:06;;;;;;;0.70;0.70;;;;;;;;;;5119495;28;20200;-61
2021/09/20 00:38:34;;;;;;;0.70;0.70;;;;;;;;;;5119147;28;20575;-61
2021/09/20 00:41:04;;;;;;;0.57;0.53;;;;;;;;;;5119266;28;20205;-62
2021/09/20 00:43:32;;;;;;;0.70;0.60;;;;;;;;;;5119109;28;20565;-62
2021/09/20 00:46:00;;;;;;;1.53;0.70;;;;;;;;;;5119021;28;20224;-62
2021/09/20 00:48:28;;;;;;;0.40;0.40;;;;;;;;;;5118921;28;20204;-62
2021/09/20 00:50:56;;;;;;;0.30;0.20;;;;;;;;;;5119079;28;20268;-61
2021/09/20 00:53:24;;;;;;;0.50;0.50;;;;;;;;;;5119214;28;20211;-62
2021/09/20 00:55:52;;;;;;;0.40;0.40;;;;;;;;;;5118934;28;20204;-62
2021/09/20 00:58:22;;;;;;;1.00;0.60;;;;;;;;;;5119101;28;20201;-61
2021/09/20 01:00:50;;;;;;;0.60;0.60;;;;;;;;;;5118639;28;20208;-61
2021/09/20 01:03:18;;;;;;;2.07;0.60;;;;;;;;;;5118795;28;20205;-61
2021/09/20 01:05:46;;;;;;;1.20;0.53;;;;;;;;;;5118274;28;20248;-61
2021/09/20 01:08:14;;;;;;;0.37;0.37;;;;;;;;;;5119141;28;20292;-60
2021/09/20 01:10:42;;;;;;;2.27;0.67;;;;;;;;;;5118542;28;20208;-61
2021/09/20 01:13:10;;;;;;;1.53;0.70;;;;;;;;;;5118620;28;20672;-60
2021/09/20 01:15:40;;;;;;;0.47;0.47;;;;;;;;;;5118493;28;20231;-60
2021/09/20 01:18:08;;;;;;;1.33;0.60;;;;;;;;;;5118297;28;20212;-61
2021/09/20 01:20:36;;;;;;;0.43;0.40;;;;;;;;;;5118419;28;20207;-62
2021/09/20 01:23:05;;;;;;;1.00;0.50;;;;;;;;;;5118618;28;20211;-60
2021/09/20 01:25:33;;;;;;;0.40;0.30;;;;;;;;;;5118309;28;20231;-61
2021/09/20 01:28:01;;;;;;;0.90;0.60;;;;;;;;;;5118581;28;20205;-61
2021/09/20 01:30:29;;;;;;;0.40;0.40;;;;;;;;;;5118365;27;20208;-62
2021/09/20 01:32:57;;;;;;;1.80;0.60;;;;;;;;;;5118229;28;20204;-62
2021/09/20 01:35:26;;;;;;;0.83;0.53;;;;;;;;;;5118366;28;20227;-63
2021/09/20 01:37:54;;;;;;;0.70;0.60;;;;;;;;;;5118396;28;20291;-62
2021/09/20 01:40:24;;;;;;;0.77;0.77;;;;;;;;;;5118507;28;20205;-62
2021/09/20 01:42:52;;;;;;;0.63;0.30;;;;;;;;;;5118284;28;20291;-62
2021/09/20 01:45:20;;;;;;;0.40;0.40;;;;;;;;;;5117849;28;20577;-62
2021/09/20 01:47:48;;;;;;;1.07;0.60;;;;;;;;;;5117605;28;20226;-62
2021/09/20 01:50:16;;;;;;;0.50;0.50;;;;;;;;;;5117898;28;20719;-62
2021/09/20 01:52:44;;;;;;;0.93;0.50;;;;;;;;;;5118362;28;20288;-62
2021/09/20 01:55:13;;;;;;;0.53;0.40;;;;;;;;;;5118337;28;20232;-62
2021/09/20 01:57:43;;;;;;;0.60;0.60;;;;;;;;;;5118050;28;20207;-63
2021/09/20 02:00:12;;;;;;;0.30;0.30;;;;;;;;;;5118183;28;20208;-62
2021/09/20 02:02:40;;;;;;;0.37;0.23;;;;;;;;;;5117769;28;20193;-62
2021/09/20 02:05:09;;;;;;;0.60;0.40;;;;;;;;;;5118268;28;20228;-62
2021/09/20 02:07:37;;;;;;;0.47;0.47;;;;;;;;;;5117721;28;20237;-62
2021/09/20 02:10:06;;;;;;;0.90;0.60;;;;;;;;;;5118077;28;20200;-62
2021/09/20 02:12:34;;;;;;;0.40;0.40;;;;;;;;;;5117915;28;20269;-62
2021/09/20 02:15:05;;;;;;;0.97;0.70;;;;;;;;;;5118041;28;20236;-62
2021/09/20 02:17:33;;;;;;;1.00;0.67;;;;;;;;;;5117587;28;20642;-63
2021/09/20 02:20:01;;;;;;;0.67;0.67;;;;;;;;;;5117928;28;20201;-62
2021/09/20 02:22:29;;;;;;;0.80;0.70;;;;;;;;;;5117983;28;20268;-62
2021/09/20 02:24:57;;;;;;;1.40;0.53;;;;;;;;;;5117850;28;20284;-62
2021/09/20 02:27:25;;;;;;;0.70;0.70;;;;;;;;;;5120546;28;20232;-62
2021/09/20 02:29:53;;;;;;;1.27;0.90;;;;;;;;;;5121674;28;20208;-62
2021/09/20 02:32:23;;;;;;;1.27;0.60;;;;;;;;;;5121361;28;20287;-62
2021/09/20 02:34:50;;;;;;;1.33;0.90;;;;;;;;;;5121779;28;20243;-62
2021/09/20 02:37:18;;;;;;;1.33;0.70;;;;;;;;;;5121861;28;20201;-62
2021/09/20 02:39:46;;;;;;;0.70;0.70;;;;;;;;;;5121730;28;20215;-63
2021/09/20 02:42:14;;;;;;;0.80;0.57;;;;;;;;;;5121325;27;20215;-62
2021/09/20 02:44:42;;;;;;;0.80;0.80;;;;;;;;;;5121284;28;20616;-62
2021/09/20 02:47:11;;;;;;;0.90;0.90;;;;;;;;;;5120963;28;20308;-62
2021/09/20 02:49:41;;;;;;;1.00;0.90;;;;;;;;;;5121189;28;20284;-62
2021/09/20 02:52:09;;;;;;;1.20;0.90;;;;;;;;;;5121588;28;20217;-62
2021/09/20 02:54:36;;;;;;;0.70;0.70;;;;;;;;;;5121289;28;20711;-62
2021/09/20 02:57:05;;;;;;;2.67;0.93;;;;;;;;;;5121099;28;20296;-63
2021/09/20 02:59:33;;;;;;;0.70;0.70;;;;;;;;;;5121043;28;20839;-62
2021/09/20 03:02:00;;;;;;;0.90;0.90;;;;;;;;;;5120755;28;20317;-62
2021/09/20 03:04:29;;;;;;;0.67;0.67;;;;;;;;;;5120845;28;20692;-62
2021/09/20 03:06:58;;;;;;;1.10;1.00;;;;;;;;;;5120830;27;20239;-62
2021/09/20 03:09:26;;;;;;;1.40;1.30;;;;;;;;;;5121317;28;20211;-62
2021/09/20 03:11:54;;;;;;;1.20;1.00;;;;;;;;;;5120932;28;20212;-62
2021/09/20 03:14:22;;;;;;;1.27;1.10;;;;;;;;;;5120979;28;20288;-62
2021/09/20 03:16:53;;;;;;;1.00;0.90;;;;;;;;;;5120380;28;20279;-62
2021/09/20 03:19:22;;;;;;;1.13;1.10;;;;;;;;;;5120784;28;20250;-63
2021/09/20 03:21:50;;;;;;;1.40;1.40;;;;;;;;;;5120819;28;20274;-62
2021/09/20 03:24:19;;;;;;;1.53;1.33;;;;;;;;;;5120791;28;20225;-63
2021/09/20 03:26:47;;;;;;;1.33;1.27;;;;;;;;;;5120733;28;20209;-63
2021/09/20 03:29:15;;;;;;;1.40;1.30;;;;;;;;;;5121047;28;20212;-62
2021/09/20 03:31:43;;;;;;;1.80;1.70;;;;;;;;;;5120454;28;20213;-62
2021/09/20 03:34:11;;;;;;;1.50;1.40;;;;;;;;;;5120710;28;20224;-62
2021/09/20 03:36:39;;;;;;;2.33;1.50;;;;;;;;;;5120696;28;20219;-62
2021/09/20 03:39:07;;;;;;;1.60;1.30;;;;;;;;;;5120503;28;20215;-62
2021/09/20 03:41:36;;;;;;;1.70;1.20;;;;;;;;;;5120593;28;20205;-63
2021/09/20 03:44:05;;;;;;;2.33;1.60;;;;;;;;;;5120403;28;20225;-62
2021/09/20 03:46:33;;;;;;;1.80;1.70;;;;;;;;;;5119916;28;20205;-62
2021/09/20 03:49:02;;;;;;;1.77;1.60;;;;;;;;;;5119881;28;20580;-62
2021/09/20 03:51:31;;;;;;;1.70;1.40;;;;;;;;;;5120413;27;20229;-62
2021/09/20 03:53:58;;;;;;;3.47;2.20;;;;;;;;;;5119993;28;20325;-62
2021/09/20 03:56:26;;;;;;;2.80;1.50;;;;;;;;;;5120061;28;20565;-62
2021/09/20 03:58:56;;;;;;;1.73;1.60;;;;;;;;;;5120224;28;20703;-62
2021/09/20 04:01:24;;;;;;;4.20;1.87;;;;;;;;;;5119704;28;20205;-62
2021/09/20 04:03:55;;;;;;;1.73;1.50;;;;;;;;;;5119959;28;20225;-62
2021/09/20 04:06:23;;;;;;;1.40;1.30;;;;;;;;;;5119793;28;20348;-62
2021/09/20 04:08:53;;;;;;;2.07;1.90;;;;;;;;;;5119815;28;20235;-63
2021/09/20 04:11:21;;;;;;;3.13;2.00;;;;;;;;;;5119694;28;20720;-62
2021/09/20 04:13:49;;;;;;;2.27;2.00;;;;;;;;;;5119680;28;20602;-62
2021/09/20 04:16:18;;;;;;;1.90;1.80;;;;;;;;;;5119727;28;20751;-62
2021/09/20 04:18:46;;;;;;;1.87;1.57;;;;;;;;;;5119790;28;20230;-62
2021/09/20 04:21:14;;;;;;;3.67;1.97;;;;;;;;;;5119917;27;20216;-62
2021/09/20 04:23:42;;;;;;;2.20;1.90;;;;;;;;;;5119300;28;20204;-62
2021/09/20 04:26:10;;;;;;;2.27;1.93;;;;;;;;;;5119347;28;20568;-62
2021/09/20 04:28:38;;;;;;;2.27;2.07;;;;;;;;;;5119163;28;20311;-62
2021/09/20 04:31:06;;;;;;;2.20;1.90;;;;;;;;;;5119162;28;20545;-62
2021/09/20 04:33:36;;;;;;;2.20;2.00;;;;;;;;;;5118932;28;20655;-62
2021/09/20 04:36:07;;;;;;;2.40;1.90;;;;;;;;;;5119191;28;20593;-62
2021/09/20 04:38:35;;;;;;;2.47;2.00;;;;;;;;;;5119467;28;20203;-62
2021/09/20 04:41:03;;;;;;;2.77;2.10;;;;;;;;;;5119342;28;20205;-63
2021/09/20 04:43:31;;;;;;;2.10;1.87;;;;;;;;;;5119274;28;20200;-63
2021/09/20 04:45:59;;;;;;;2.90;2.30;;;;;;;;;;5119042;28;20211;-62
2021/09/20 04:48:32;;;;;;;2.30;2.03;;;;;;;;;;5118927;28;20220;-62
2021/09/20 04:51:01;;;;;;;2.90;2.30;;;;;;;;;;5118163;28;20656;-62
2021/09/20 04:53:29;;;;;;;2.70;2.27;;;;;;;;;;5119067;28;20208;-62
2021/09/20 04:55:57;;;;;;;2.37;1.70;;;;;;;;;;5118898;27;20735;-62
2021/09/20 04:58:25;;;;;;;2.00;1.80;;;;;;;;;;5119258;28;20204;-62
2021/09/20 05:00:53;;;;;;;3.57;2.03;;;;;;;;;;5118664;28;20227;-62
2021/09/20 05:03:21;;;;;;;1.87;1.50;;;;;;;;;;5118849;27;20268;-62
2021/09/20 05:05:49;;;;;;;1.80;1.60;;;;;;;;;;5118367;28;20327;-62
2021/09/20 05:08:19;;;;;;;3.37;1.60;;;;;;;;;;5118442;28;20710;-62
2021/09/20 05:10:47;;;;;;;1.60;1.50;;;;;;;;;;5118861;28;20283;-62
2021/09/20 05:13:15;;;;;;;1.50;1.40;;;;;;;;;;5118616;28;20295;-62
2021/09/20 05:15:43;;;;;;;1.77;1.40;;;;;;;;;;5118557;28;20231;-62
2021/09/20 05:18:12;;;;;;;1.57;1.47;;;;;;;;;;5118275;28;20237;-62
2021/09/20 05:20:39;;;;;;;1.83;1.70;;;;;;;;;;5118760;27;20204;-62
2021/09/20 05:23:08;;;;;;;2.80;2.23;;;;;;;;;;5118602;28;20247;-62
2021/09/20 05:25:37;;;;;;;2.20;2.00;;;;;;;;;;5118603;27;20216;-62
2021/09/20 05:28:05;;;;;;;2.30;2.10;;;;;;;;;;5118417;28;20226;-62
2021/09/20 05:30:33;;;;;;;2.23;2.03;;;;;;;;;;5118643;28;20265;-62
2021/09/20 05:33:01;;;;;;;2.67;2.03;;;;;;;;;;5117710;28;20216;-62
2021/09/20 05:35:30;;;;;;;3.40;1.90;;;;;;;;;;5118281;28;20224;-62
2021/09/20 05:37:58;;;;;;;3.47;2.30;;;;;;;;;;5118475;28;20215;-62
2021/09/20 05:40:25;;;;;;;1.77;1.60;;;;;;;;;;5118587;28;20287;-62
2021/09/20 05:42:58;;;;;;;1.80;1.60;;;;;;;;;;5118282;28;20306;-63
2021/09/20 05:45:27;;;;;;;2.90;1.90;;;;;;;;;;5118238;28;20229;-62
2021/09/20 05:47:55;;;;;;;2.00;1.87;;;;;;;;;;5117520;28;20283;-62
2021/09/20 05:50:23;;;;;;;2.23;1.97;;;;;;;;;;5117958;28;20654;-62
2021/09/20 05:52:51;;;;;;;2.90;2.00;;;;;;;;;;5117879;28;20204;-62
2021/09/20 05:55:19;;;;;;;2.30;2.10;;;;;;;;;;5117916;28;20225;-62
2021/09/20 05:57:47;;;;;;;2.73;2.10;;;;;;;;;;5117780;28;20270;-62
2021/09/20 06:00:17;;;;;;;1.93;1.83;;;;;;;;;;5117800;28;20728;-63
2021/09/20 06:02:47;;;;;;;1.97;1.87;;;;;;;;;;5120837;28;20203;-62
2021/09/20 06:05:16;;;;;;;2.10;1.60;;;;;;;;;;5122097;28;20731;-62
2021/09/20 06:07:44;;;;;;;2.17;1.80;;;;;;;;;;5121896;28;20236;-62
2021/09/20 06:10:12;;;;;;;1.50;1.40;;;;;;;;;;5122074;28;20234;-62
2021/09/20 06:12:40;;;;;;;1.70;1.60;;;;;;;;;;5122466;28;20204;-63
2021/09/20 06:15:09;;;;;;;1.57;1.47;;;;;;;;;;5122353;28;20699;-62
2021/09/20 06:17:38;;;;;;;1.63;1.53;;;;;;;;;;5121585;28;20204;-62
2021/09/20 06:20:08;;;;;;;1.93;1.40;;;;;;;;;;5122011;28;20205;-62
2021/09/20 06:22:37;;;;;;;1.03;0.87;;;;;;;;;;5121792;28;20204;-62
2021/09/20 06:25:07;;;;;;;0.67;0.67;;;;;;;;;;5121692;28;20228;-62
2021/09/20 06:27:35;;;;;;;2.30;1.10;;;;;;;;;;5121907;28;20716;-62
2021/09/20 06:30:03;;;;;;;0.80;0.80;;;;;;;;;;5121701;28;20224;-62
2021/09/20 06:32:32;;;;;;;0.40;0.40;;;;;;;;;;5121692;28;20208;-63
2021/09/20 06:35:02;;;;;;;0.70;0.63;;;;;;;;;;5121238;28;20604;-62
2021/09/20 06:37:30;;;;;;;0.93;0.90;;;;;;;;;;5121526;28;20204;-62
2021/09/20 06:39:59;;;;;;;0.67;0.53;;;;;;;;;;5121800;28;20201;-63
2021/09/20 06:42:27;;;;;;;3.23;0.90;;;;;;;;;;5121625;28;20240;-62
2021/09/20 06:44:55;;;;;;;3.03;0.90;;;;;;;;;;5121486;28;20224;-63
2021/09/20 06:47:23;;;;;;;1.60;1.10;;;;;;;;;;5121257;28;20207;-62
2021/09/20 06:49:51;;;;;;;0.77;0.70;;;;;;;;;;5121314;28;20722;-63
2021/09/20 06:52:20;;;;;;;0.90;0.90;;;;;;;;;;5121539;27;20204;-62
2021/09/20 06:54:48;;;;;;;0.97;0.80;;;;;;;;;;5121252;28;20221;-62
2021/09/20 06:57:16;;;;;;;2.40;1.10;;;;;;;;;;5121202;28;20628;-62
2021/09/20 06:59:44;;;;;;;2.27;1.03;;;;;;;;;;5120913;28;20207;-62
2021/09/20 07:02:12;;;;;;;1.10;1.00;;;;;;;;;;5120975;28;20201;-62
2021/09/20 07:04:40;;;;;;;2.07;1.20;;;;;;;;;;5121257;28;20225;-62
2021/09/20 07:07:08;;;;;;;4.43;1.20;;;;;;;;;;5120971;28;20246;-62
2021/09/20 07:09:38;;;;;;;1.40;0.87;;;;;;;;;;5121115;28;20228;-62
2021/09/20 07:12:06;;;;;;;0.93;0.80;;;;;;;;;;5120280;27;20205;-63
2021/09/20 07:14:34;;;;;;;1.53;0.80;;;;;;;;;;5121160;28;20227;-62
2021/09/20 07:17:02;;;;;;;0.70;0.70;;;;;;;;;;5120655;27;20211;-63
2021/09/20 07:19:50;;;;;;;0.87;0.87;;;;;;;;;;5120591;28;20201;-62
2021/09/20 07:22:18;;;;;;;2.10;1.10;;;;;;;;;;5120945;28;20209;-63
2021/09/20 07:24:47;;;;;;;2.33;0.90;;;;;;;;;;5120986;28;20228;-63
2021/09/20 07:27:16;;;;;;;0.70;0.60;;;;;;;;;;5107677;28;20205;-63
2021/09/20 07:29:43;;;;;;;0.87;0.83;;;;;;;;;;5120671;28;20731;-63
2021/09/20 07:32:11;;;;;;;1.60;1.10;;;;;;;;;;5120457;28;20220;-63
2021/09/20 07:34:40;;;;;;;2.93;1.10;;;;;;;;;;5120595;28;20231;-63
2021/09/20 07:37:08;;;;;;;1.30;0.80;;;;;;;;;;5120679;28;20576;-62
2021/09/20 07:39:36;;;;;;;2.73;1.10;;;;;;;;;;5120336;28;20299;-62
2021/09/20 07:42:06;;;;;;;2.43;1.20;;;;;;;;;;5120910;28;20201;-62
2021/09/20 07:44:34;;;;;;;2.33;1.40;;;;;;;;;;5120321;28;20730;-63
2021/09/20 07:47:03;;;;;;;1.63;1.00;;;;;;;;;;5119771;28;20226;-63
2021/09/20 07:49:32;;;;;;;0.90;0.80;;;;;;;;;;5120336;28;20225;-62
2021/09/20 07:52:00;;;;;;;3.73;1.30;;;;;;;;;;5120209;28;20254;-62
2021/09/20 07:54:28;;;;;;;1.83;0.77;;;;;;;;;;5119970;27;20221;-62
2021/09/20 07:56:56;;;;;;;5.73;1.70;;;;;;;;;;5120046;28;20227;-63
2021/09/20 07:59:26;;;;;;;1.27;1.10;;;;;;;;;;5119962;28;20205;-63
2021/09/20 08:01:54;;;;;;;2.63;1.33;;;;;;;;;;5119804;28;20207;-63
2021/09/20 08:04:22;;;;;;;2.50;1.00;;;;;;;;;;5119985;28;20256;-62
2021/09/20 08:06:50;;;;;;;1.80;1.10;;;;;;;;;;5119721;28;20240;-63
2021/09/20 08:09:18;;;;;;;1.43;1.00;;;;;;;;;;5119536;28;20201;-62
2021/09/20 08:11:46;;;;;;;1.60;1.07;;;;;;;;;;5119652;28;20671;-63
2021/09/20 08:14:14;;;;;;;1.87;1.53;;;;;;;;;;5119839;28;20227;-63
2021/09/20 08:16:43;;;;;;;2.73;1.30;;;;;;;;;;5119483;28;20204;-62
2021/09/20 08:19:11;;;;;;;2.27;1.20;;;;;;;;;;5119628;28;20712;-62
2021/09/20 08:21:39;;;;;;;1.90;1.27;;;;;;;;;;5119641;28;20209;-62
2021/09/20 08:24:07;;;;;;;5.53;1.53;;;;;;;;;;5118737;28;20231;-62
2021/09/20 08:26:35;;;;;;;2.00;1.37;;;;;;;;;;5119569;28;20208;-62
2021/09/20 08:29:03;;;;;;;3.33;2.10;;;;;;;;;;5119481;28;20276;-62
2021/09/20 08:31:31;;;;;;;1.97;1.70;;;;;;;;;;5119162;28;20233;-62
2021/09/20 08:34:01;;;;;;;1.47;1.37;;;;;;;;;;5119199;28;20229;-62
2021/09/20 08:36:29;;;;;;;2.63;1.33;;;;;;;;;;5118988;27;20211;-62
2021/09/20 08:38:57;;;;;;;4.50;1.30;;;;;;;;;;5119352;28;20292;-62
2021/09/20 08:41:25;;;;;;;5.43;1.23;;;;;;;;;;5119087;28;20264;-62
2021/09/20 08:43:53;;;;;;;5.00;1.53;;;;;;;;;;5119052;28;20277;-62
2021/09/20 08:46:21;;;;;;;2.97;1.50;;;;;;;;;;5118889;27;20205;-63
2021/09/20 08:48:50;;;;;;;3.17;1.20;;;;;;;;;;5119033;28;20725;-62
2021/09/20 08:51:21;;;;;;;1.27;1.17;;;;;;;;;;5119159;27;20229;-62
2021/09/20 08:53:50;;;;;;;2.90;1.83;;;;;;;;;;5118809;28;20227;-62
2021/09/20 08:56:18;;;;;;;4.60;1.80;;;;;;;;;;5119047;28;20268;-62
2021/09/20 08:58:46;;;;;;;1.50;1.03;;;;;;;;;;5118599;28;20287;-62
2021/09/20 09:01:14;;;;;;;1.93;1.40;;;;;;;;;;5118456;28;20232;-62
2021/09/20 09:03:43;;;;;;;2.77;1.50;;;;;;;;;;5118567;28;20287;-62
2021/09/20 09:06:11;;;;;;;1.90;1.40;;;;;;;;;;5118511;28;20598;-62
2021/09/20 09:08:41;;;;;;;2.27;1.60;;;;;;;;;;5118398;28;20235;-62
2021/09/20 09:11:13;;;;;;;2.10;1.30;;;;;;;;;;5118356;28;20262;-62
2021/09/20 09:13:42;;;;;;;5.07;2.10;;;;;;;;;;5118251;28;20320;-62
2021/09/20 09:16:14;;;;;;;3.80;1.70;;;;;;;;;;5118059;28;20682;-62
2021/09/20 09:19:02;;;;;;;2.63;1.83;;;;;;;;;;5118351;28;20713;-62
2021/09/20 09:21:31;;;;;;;1.87;1.60;;;;;;;;;;5117955;28;20251;-62
2021/09/20 09:24:01;;;;;;;2.80;1.03;;;;;;;;;;5118257;28;20235;-62
2021/09/20 09:26:29;;;;;;;1.30;1.20;;;;;;;;;;5118220;28;20657;-62
2021/09/20 09:29:07;;;;;;;1.17;1.00;;;;;;;;;;5118629;28;20223;-63
2021/09/20 09:31:36;;;;;;;1.20;1.10;;;;;;;;;;5118069;28;20224;-62
2021/09/20 09:34:15;;;;;;;3.03;0.90;;;;;;;;;;5118444;28;20267;-62
2021/09/20 09:36:43;;;;;;;1.03;0.93;;;;;;;;;;5118022;28;20574;-62
2021/09/20 09:39:12;;;;;;;1.83;0.80;;;;;;;;;;5118367;28;20207;-62
2021/09/20 09:41:41;;;;;;;0.80;0.80;;;;;;;;;;5118148;28;20205;-62
2021/09/20 09:44:10;;;;;;;1.20;0.87;;;;;;;;;;5118128;28;20225;-62
2021/09/20 09:46:39;;;;;;;1.07;0.70;;;;;;;;;;5117690;28;20205;-62
2021/09/20 09:49:11;;;;;;;1.33;1.23;;;;;;;;;;5118027;28;20205;-62
2021/09/20 09:51:56;;;;;;;1.00;0.80;;;;;;;;;;5117984;28;20229;-62
2021/09/20 09:54:29;;;;;;;0.87;0.80;;;;;;;;;;5117983;28;20225;-62
2021/09/20 09:57:14;;;;;;;0.60;0.60;;;;;;;;;;5117921;28;20292;-62
2021/09/20 09:59:42;;;;;;;0.60;0.60;;;;;;;;;;5117989;28;20705;-62
2021/09/20 10:02:17;;;;;;;1.60;0.87;;;;;;;;;;5117497;28;20211;-62
2021/09/20 10:04:52;;;;;;;1.53;0.80;;;;;;;;;;5117946;28;20224;-62
2021/09/20 10:07:24;;;;;;;2.33;0.80;;;;;;;;;;5117706;28;20235;-62
2021/09/20 10:09:53;;;;;;;1.77;0.90;;;;;;;;;;5118343;28;20208;-62
2021/09/20 10:12:23;;;;;;;1.67;1.07;;;;;;;;;;5117855;28;20233;-62
2021/09/20 10:14:51;;;;;;;0.77;0.77;;;;;;;;;;5117932;28;20304;-62
2021/09/20 10:17:20;;;;;;;0.70;0.70;;;;;;;;;;5117639;28;20209;-62
2021/09/20 10:19:51;;;;;;;0.70;0.70;;;;;;;;;;5117977;28;20208;-62
2021/09/20 10:22:19;;;;;;;3.00;0.87;;;;;;;;;;5118050;28;20201;-62
2021/09/20 10:24:48;;;;;;;4.67;1.10;;;;;;;;;;5117538;28;20291;-62
2021/09/20 10:27:19;;;;;;;0.80;0.80;;;;;;;;;;5104774;28;20209;-62
2021/09/20 10:29:49;;;;;;;0.97;0.70;;;;;;;;;;5117615;28;20694;-62
2021/09/20 10:32:18;;;;;;;1.27;0.93;;;;;;;;;;5117487;28;20237;-62
2021/09/20 10:34:48;;;;;;;1.60;1.10;;;;;;;;;;5117696;28;20315;-62
2021/09/20 10:37:17;;;;;;;1.70;1.10;;;;;;;;;;5117516;28;20227;-62
2021/09/20 10:39:46;;;;;;;0.90;0.77;;;;;;;;;;5117651;28;20200;-62
2021/09/20 10:42:29;;;;;;;1.10;0.90;;;;;;;;;;5117785;28;20291;-62
2021/09/20 10:44:59;;;;;;;0.80;0.80;;;;;;;;;;5117062;28;20225;-62
2021/09/20 10:47:41;;;;;;;1.13;0.97;;;;;;;;;;5117756;28;20205;-62
2021/09/20 10:50:09;;;;;;;2.77;1.00;;;;;;;;;;5121228;28;20572;-62
2021/09/20 10:52:37;;;;;;;1.80;1.00;;;;;;;;;;5121197;27;20345;-62
2021/09/20 10:55:08;;;;;;;2.37;0.83;;;;;;;;;;5121237;28;20252;-62
2021/09/20 10:57:36;;;;;;;1.43;1.13;;;;;;;;;;5120974;28;20235;-62
2021/09/20 11:00:24;;;;;;;2.50;0.80;;;;;;;;;;5121419;27;20253;-62
2021/09/20 11:02:52;;;;;;;1.83;0.93;;;;;;;;;;5120929;28;20195;-62
2021/09/20 11:05:26;;;;;;;2.10;1.00;;;;;;;;;;5121224;28;20259;-62
2021/09/20 11:07:54;;;;;;;0.90;0.70;;;;;;;;;;5121144;28;20238;-62
2021/09/20 11:10:29;;;;;;;1.27;1.00;;;;;;;;;;5121336;28;20222;-62
2021/09/20 11:13:02;;;;;;;0.80;0.77;;;;;;;;;;5120904;28;20585;-62
2021/09/20 11:15:38;;;;;;;1.33;1.10;;;;;;;;;;5121011;28;20224;-62
2021/09/20 11:18:06;;;;;;;1.00;1.00;;;;;;;;;;5120506;28;20288;-62
2021/09/20 11:20:36;;;;;;;1.00;1.00;;;;;;;;;;5121013;28;20291;-63
2021/09/20 11:23:17;;;;;;;1.23;1.07;;;;;;;;;;5120741;28;20207;-63
2021/09/20 11:26:09;;;;;;;0.97;0.97;;;;;;;;;;5120775;28;20227;-63
2021/09/20 11:28:37;;;;;;;1.50;1.40;;;;;;;;;;5105332;27;20209;-62
2021/09/20 11:31:07;;;;;;;1.10;0.83;;;;;;;;;;5120061;28;20567;-62
2021/09/20 11:33:36;;;;;;;1.03;0.97;;;;;;;;;;5120452;28;20200;-62
2021/09/20 11:36:14;;;;;;;1.10;1.00;;;;;;;;;;5120546;28;20575;-62
2021/09/20 11:38:42;;;;;;;2.60;1.20;;;;;;;;;;5120775;28;20205;-62
2021/09/20 11:41:20;;;;;;;1.03;1.03;;;;;;;;;;5120201;28;20216;-62
2021/09/20 11:43:49;;;;;;;2.83;1.53;;;;;;;;;;5120557;28;20228;-63
2021/09/20 11:46:22;;;;;;;4.63;1.30;;;;;;;;;;5120024;28;20219;-62
2021/09/20 11:49:01;;;;;;;2.00;1.40;;;;;;;;;;5116680;28;20219;-62
2021/09/20 11:51:29;;;;;;;2.23;1.10;;;;;;;;;;5119249;28;20307;-62
2021/09/20 11:53:57;;;;;;;1.17;1.03;;;;;;;;;;5119901;28;20308;-62
2021/09/20 11:56:26;;;;;;;1.23;1.00;;;;;;;;;;5120095;28;20285;-62
2021/09/20 11:58:55;;;;;;;1.10;1.10;;;;;;;;;;5118216;28;20211;-62
2021/09/20 12:01:26;;;;;;;2.63;1.00;;;;;;;;;;5119797;28;20197;-63
2021/09/20 12:03:56;;;;;;;0.90;0.90;;;;;;;;;;5119679;28;20217;-62
2021/09/20 12:06:25;;;;;;;1.43;1.20;;;;;;;;;;5119725;27;20284;-62
2021/09/20 12:08:53;;;;;;;1.27;1.20;;;;;;;;;;5119584;28;20665;-62
2021/09/20 12:11:24;;;;;;;2.97;1.30;;;;;;;;;;5119744;28;20205;-62
2021/09/20 12:13:52;;;;;;;2.63;1.07;;;;;;;;;;5119475;28;20579;-63
2021/09/20 12:16:20;;;;;;;1.30;1.20;;;;;;;;;;5119200;28;20578;-62
2021/09/20 12:18:50;;;;;;;0.90;0.90;;;;;;;;;;5119587;28;20269;-63
2021/09/20 12:21:19;;;;;;;1.13;1.00;;;;;;;;;;5119870;28;20212;-62
2021/09/20 12:23:48;;;;;;;1.30;1.27;;;;;;;;;;5119757;28;20312;-63
2021/09/20 12:26:17;;;;;;;0.90;0.90;;;;;;;;;;5119636;28;20205;-63
2021/09/20 12:28:50;;;;;;;1.63;1.23;;;;;;;;;;5119285;28;20223;-63
2021/09/20 12:31:20;;;;;;;1.50;1.10;;;;;;;;;;5118867;28;20575;-63
2021/09/20 12:33:51;;;;;;;1.30;1.20;;;;;;;;;;5119328;28;20221;-62
2021/09/20 12:36:20;;;;;;;2.57;1.10;;;;;;;;;;5119123;28;20216;-63
2021/09/20 12:38:57;;;;;;;2.93;0.90;;;;;;;;;;5119301;28;20215;-62
2021/09/20 12:41:30;;;;;;;1.27;1.17;;;;;;;;;;5119307;28;20214;-62
2021/09/20 12:43:59;;;;;;;1.13;0.80;;;;;;;;;;5119322;28;20231;-63
2021/09/20 12:46:28;;;;;;;0.93;0.93;;;;;;;;;;5118713;28;20239;-62
2021/09/20 12:48:58;;;;;;;0.93;0.70;;;;;;;;;;5119048;28;20232;-62
2021/09/20 12:51:32;;;;;;;4.07;0.90;;;;;;;;;;5118842;28;20209;-62
2021/09/20 12:54:00;;;;;;;1.33;1.00;;;;;;;;;;5118639;28;20221;-62
2021/09/20 12:56:29;;;;;;;2.03;1.43;;;;;;;;;;5118778;28;20201;-62
2021/09/20 12:59:11;;;;;;;0.97;0.90;;;;;;;;;;5118868;28;20211;-62
2021/09/20 13:01:44;;;;;;;1.27;1.17;;;;;;;;;;5118210;28;20208;-62
2021/09/20 13:04:23;;;;;;;1.37;1.10;;;;;;;;;;5118509;28;20228;-62
2021/09/20 13:07:01;;;;;;;2.30;0.80;;;;;;;;;;5118476;28;20695;-62
2021/09/20 13:09:29;;;;;;;1.20;1.10;;;;;;;;;;5118788;28;20200;-62
2021/09/20 13:12:04;;;;;;;1.70;1.10;;;;;;;;;;5118048;28;20578;-62
2021/09/20 13:14:32;;;;;;;2.90;2.60;;;;;;;;;;5118776;28;20228;-62
2021/09/20 13:17:06;;;;;;;2.70;1.50;;;;;;;;;;5118319;28;20215;-62
2021/09/20 13:19:35;;;;;;;1.17;1.17;;;;;;;;;;5118766;27;20208;-60
2021/09/20 13:22:05;;;;;;;0.90;0.90;;;;;;;;;;5118847;27;20205;-60
2021/09/20 13:24:37;;;;;;;1.07;1.03;;;;;;;;;;5118329;28;20585;-62
2021/09/20 13:27:16;;;;;;;2.40;0.93;;;;;;;;;;5118727;28;20205;-62
2021/09/20 13:29:44;;;;;;;2.70;1.30;;;;;;;;;;5118488;28;20214;-62
2021/09/20 13:32:12;;;;;;;1.53;1.27;;;;;;;;;;5118092;28;20210;-62
2021/09/20 13:34:41;;;;;;;1.30;1.20;;;;;;;;;;5118118;28;20590;-62
2021/09/20 13:37:11;;;;;;;1.03;1.00;;;;;;;;;;5118245;28;20564;-62
2021/09/20 13:39:39;;;;;;;1.60;1.50;;;;;;;;;;5118237;28;20216;-60
2021/09/20 13:42:07;;;;;;;2.60;1.13;;;;;;;;;;5118341;28;20279;-61
2021/09/20 13:44:39;;;;;;;1.33;1.10;;;;;;;;;;5118055;28;20366;-61
2021/09/20 13:47:07;;;;;;;1.40;1.03;;;;;;;;;;5117792;28;20667;-62
2021/09/20 13:49:36;;;;;;;2.50;1.30;;;;;;;;;;5117859;28;20247;-62
2021/09/20 13:52:05;;;;;;;3.03;2.00;;;;;;;;;;5117538;28;20209;-60
2021/09/20 13:54:33;;;;;;;2.10;2.00;;;;;;;;;;5117229;28;20664;-60
2021/09/20 13:57:01;;;;;;;2.03;1.33;;;;;;;;;;5117780;28;20200;-61
2021/09/20 13:59:29;;;;;;;0.97;0.97;;;;;;;;;;5117882;28;20230;-60
2021/09/20 14:01:57;;;;;;;1.70;1.60;;;;;;;;;;5117749;28;20280;-60
2021/09/20 14:04:25;;;;;;;1.97;1.13;;;;;;;;;;5117786;28;20242;-61
2021/09/20 14:06:53;;;;;;;1.50;1.30;;;;;;;;;;5117483;28;20233;-60
2021/09/20 14:09:23;;;;;;;1.43;1.10;;;;;;;;;;5117946;28;20204;-61
2021/09/20 14:11:51;;;;;;;1.50;1.40;;;;;;;;;;5117998;28;20240;-60
2021/09/20 14:14:19;;;;;;;1.40;1.20;;;;;;;;;;5118001;28;20228;-60
2021/09/20 14:16:48;;;;;;;1.40;1.30;;;;;;;;;;5117426;28;20211;-60
2021/09/20 14:19:16;;;;;;;1.80;1.70;;;;;;;;;;5118358;28;20264;-60
2021/09/20 14:21:44;;;;;;;1.20;1.10;;;;;;;;;;5118056;28;20204;-60
2021/09/20 14:24:12;;;;;;;1.30;1.20;;;;;;;;;;5121936;28;20224;-60
2021/09/20 14:26:42;;;;;;;1.63;1.30;;;;;;;;;;5122070;28;20201;-62
2021/09/20 14:29:10;;;;;;;1.83;1.43;;;;;;;;;;5121950;28;20284;-62
2021/09/20 14:31:38;;;;;;;2.10;1.70;;;;;;;;;;5121539;28;20208;-62
2021/09/20 14:34:06;;;;;;;4.73;3.03;;;;;;;;;;5121913;28;20316;-62
2021/09/20 14:36:34;;;;;;;2.67;1.70;;;;;;;;;;5122140;28;20205;-62
2021/09/20 14:39:02;;;;;;;1.30;1.20;;;;;;;;;;5122050;28;20212;-62
2021/09/20 14:41:30;;;;;;;1.87;1.60;;;;;;;;;;5121601;28;20580;-62
2021/09/20 14:44:00;;;;;;;1.57;1.40;;;;;;;;;;5121457;28;20341;-62
2021/09/20 14:46:30;;;;;;;1.40;1.30;;;;;;;;;;5121472;28;20205;-61
2021/09/20 14:48:58;;;;;;;3.07;1.90;;;;;;;;;;5121400;28;20247;-62
2021/09/20 14:51:26;;;;;;;3.10;1.70;;;;;;;;;;5121363;28;20204;-61
2021/09/20 14:53:54;;;;;;;1.97;1.70;;;;;;;;;;5121169;28;20233;-61
2021/09/20 14:56:22;;;;;;;1.60;1.50;;;;;;;;;;5121084;28;20307;-61